Time;durP1;ratioP1;P1;durP2;ratioP2;P2;SDS_P1;SDS_P2;PMS_P1;PMS_P2;Temp;Humidity;BMP_temperature;BMP_pressure;BME280_temperature;BME280_humidity;BME280_pressure;Samples;Min_cycle;Max_cycle;Signal;HPM_P1;HPM_P2
2021/01/07 00:02:00;;;;;;;43.70;22.38;;;;;;;1.58;100.00;100230.41;18527745;28;20561;-72
2021/01/07 00:11:03;;;;;;;44.42;22.63;;;;;;;1.60;100.00;100237.25;18528227;28;20051;-72
2021/01/07 00:20:08;;;;;;;43.70;22.67;;;;;;;1.56;100.00;100227.88;18530967;28;20043;-72
2021/01/07 00:29:09;;;;;;;45.53;22.00;;;;;;;1.60;100.00;100233.81;18529542;28;20579;-73
2021/01/07 00:38:10;;;;;;;47.65;22.83;;;;;;;1.57;100.00;100229.59;18526635;28;20050;-72
2021/01/07 00:47:12;;;;;;;46.45;22.02;;;;;;;1.59;100.00;100226.97;18526994;28;20483;-72
2021/01/07 00:56:13;;;;;;;47.28;22.35;;;;;;;1.56;100.00;100227.03;18525052;28;20057;-72
2021/01/07 01:05:14;;;;;;;45.25;21.20;;;;;;;1.49;100.00;100228.88;18524304;28;20051;-72
2021/01/07 01:14:18;;;;;;;45.95;20.80;;;;;;;1.49;100.00;100228.03;18524311;28;20083;-71
2021/01/07 01:23:19;;;;;;;47.33;21.30;;;;;;;1.59;100.00;100239.84;18515617;28;20054;-73
2021/01/07 01:32:19;;;;;;;45.70;21.73;;;;;;;1.54;100.00;100242.53;18522101;28;20051;-72
2021/01/07 01:41:20;;;;;;;44.03;21.20;;;;;;;1.52;100.00;100241.72;18521845;28;20129;-72
2021/01/07 01:50:22;;;;;;;47.42;22.00;;;;;;;1.46;100.00;100247.00;18522657;28;20047;-72
2021/01/07 01:59:25;;;;;;;48.00;21.95;;;;;;;1.47;100.00;100248.72;18520672;28;20050;-72
2021/01/07 02:08:27;;;;;;;49.10;21.40;;;;;;;1.54;100.00;100245.13;18519531;28;20050;-72
2021/01/07 02:17:29;;;;;;;48.20;22.03;;;;;;;1.54;100.00;100239.94;18519459;28;20047;-72
2021/01/07 02:26:30;;;;;;;51.15;22.70;;;;;;;1.57;100.00;100229.59;18519558;28;20047;-72
2021/01/07 02:35:31;;;;;;;49.55;21.63;;;;;;;1.58;100.00;100231.28;18518520;28;20518;-73
2021/01/07 02:44:32;;;;;;;50.00;21.80;;;;;;;1.61;100.00;100220.91;18518795;28;20130;-72
2021/01/07 02:53:33;;;;;;;46.35;21.70;;;;;;;1.52;100.00;100234.00;18526100;28;20066;-73
2021/01/07 03:02:34;;;;;;;47.53;21.35;;;;;;;1.58;100.00;100220.09;18514472;28;20046;-73
2021/01/07 03:11:35;;;;;;;50.28;21.58;;;;;;;1.58;100.00;100225.25;18532088;28;20055;-72
2021/01/07 03:20:36;;;;;;;51.75;22.20;;;;;;;1.67;100.00;100223.38;18530995;28;20086;-72
2021/01/07 03:29:37;;;;;;;47.90;21.17;;;;;;;1.62;100.00;100219.19;18531062;28;20097;-72
2021/01/07 03:38:38;;;;;;;44.70;19.25;;;;;;;1.59;100.00;100217.50;18529153;28;20039;-72
2021/01/07 03:47:39;;;;;;;46.38;20.95;;;;;;;1.60;100.00;100213.19;18529939;28;20542;-72
2021/01/07 03:56:40;;;;;;;50.47;20.85;;;;;;;1.60;100.00;100208.88;18530639;28;20050;-72
2021/01/07 04:05:41;;;;;;;49.95;21.52;;;;;;;1.65;100.00;100206.22;18526515;28;20094;-72
2021/01/07 04:14:42;;;;;;;49.15;20.13;;;;;;;1.64;100.00;100210.50;18527538;28;20091;-72
2021/01/07 04:23:43;;;;;;;56.33;22.13;;;;;;;1.69;100.00;100206.09;18527270;28;20051;-72
2021/01/07 04:32:44;;;;;;;51.00;21.33;;;;;;;1.63;100.00;100205.38;18526016;28;20109;-71
2021/01/07 04:41:45;;;;;;;51.03;21.73;;;;;;;1.62;100.00;100201.13;18526243;28;20047;-72
2021/01/07 04:50:46;;;;;;;54.10;22.05;;;;;;;1.64;100.00;100202.78;18525624;28;20054;-72
2021/01/07 04:59:47;;;;;;;55.42;22.58;;;;;;;1.52;100.00;100210.78;18526953;28;20054;-72
2021/01/07 05:08:55;;;;;;;57.85;22.25;;;;;;;1.64;100.00;100205.34;18524444;28;20078;-72
2021/01/07 05:17:59;;;;;;;61.72;23.55;;;;;;;1.64;100.00;100199.34;18523253;28;20071;-72
2021/01/07 05:27:26;;;;;;;59.30;23.55;;;;;;;1.54;100.00;100206.44;18522645;28;20053;-72
2021/01/07 05:36:29;;;;;;;56.90;21.92;;;;;;;1.67;100.00;100205.31;18518481;28;20067;-72
2021/01/07 05:45:35;;;;;;;59.88;23.60;;;;;;;1.59;100.00;100202.03;18521962;28;20247;-72
2021/01/07 05:54:37;;;;;;;62.17;23.13;;;;;;;1.56;100.00;100199.53;18521740;28;20470;-72
2021/01/07 06:03:45;;;;;;;55.97;24.10;;;;;;;1.57;100.00;100196.06;18520329;28;20078;-72
2021/01/07 06:12:46;;;;;;;61.17;25.77;;;;;;;1.55;100.00;100205.56;18521074;28;20101;-72
2021/01/07 06:21:47;;;;;;;60.85;24.98;;;;;;;1.51;100.00;100203.91;18519930;28;20050;-72
2021/01/07 06:30:54;;;;;;;62.88;24.25;;;;;;;1.46;100.00;100205.75;18519792;28;20078;-72
2021/01/07 06:39:57;;;;;;;66.32;26.33;;;;;;;1.42;100.00;100209.28;18519329;28;20047;-72
2021/01/07 06:48:58;;;;;;;67.05;26.08;;;;;;;1.38;100.00;100217.94;18518956;28;20086;-72
2021/01/07 06:57:59;;;;;;;65.63;26.23;;;;;;;1.36;100.00;100221.44;18518370;28;20058;-72
2021/01/07 07:07:15;;;;;;;65.93;25.98;;;;;;;1.31;100.00;100229.25;18511022;28;20047;-72
2021/01/07 07:16:18;;;;;;;57.47;23.65;;;;;;;1.28;100.00;100232.72;18518826;28;20086;-72
2021/01/07 07:25:27;;;;;;;67.05;26.25;;;;;;;1.16;100.00;100234.69;18518711;28;20054;-72
2021/01/07 07:34:31;;;;;;;69.40;26.98;;;;;;;1.04;100.00;100247.81;18517946;28;20053;-72
2021/01/07 07:43:33;;;;;;;76.45;27.33;;;;;;;1.02;100.00;100265.00;18528224;28;20054;-73
2021/01/07 07:52:34;;;;;;;87.55;32.35;;;;;;;1.02;100.00;100270.16;18531057;28;20058;-71
2021/01/07 08:01:49;;;;;;;85.78;31.45;;;;;;;1.04;100.00;100269.28;18509690;28;20459;-71
2021/01/07 08:10:55;;;;;;;80.43;28.48;;;;;;;1.00;100.00;100277.94;18515299;28;20066;-71
2021/01/07 08:19:56;;;;;;;85.70;30.00;;;;;;;1.12;100.00;100282.84;18512910;28;20478;-70
2021/01/07 08:28:57;;;;;;;77.45;28.60;;;;;;;1.21;100.00;100281.88;18491919;28;20047;-71
2021/01/07 08:37:58;;;;;;;68.53;27.27;;;;;;;1.24;100.00;100292.09;18496366;28;20081;-71
2021/01/07 08:46:59;;;;;;;73.97;27.88;;;;;;;1.27;100.00;100279.16;18513081;28;20055;-72
2021/01/07 08:56:00;;;;;;;71.68;27.65;;;;;;;1.19;100.00;100270.72;18512794;28;20428;-72
2021/01/07 09:05:03;;;;;;;72.10;26.85;;;;;;;1.25;100.00;100266.31;18523231;28;20050;-72
2021/01/07 09:14:06;;;;;;;67.07;26.13;;;;;;;1.36;100.00;100276.44;18523576;28;20051;-72
2021/01/07 09:23:09;;;;;;;69.80;27.60;;;;;;;1.21;100.00;100284.44;18519647;28;20055;-71
2021/01/07 09:32:11;;;;;;;;;;;;;;;1.10;100.00;100300.09;18519055;28;20057;-71
2021/01/07 09:41:12;;;;;;;65.70;27.30;;;;;;;1.09;100.00;100297.53;18520074;28;20389;-71
2021/01/07 09:50:13;;;;;;;70.13;27.83;;;;;;;1.25;100.00;100296.41;18520360;28;20047;-71
2021/01/07 09:59:14;;;;;;;62.90;25.42;;;;;;;1.54;100.00;100286.38;18518707;28;20047;-71
2021/01/07 10:08:15;;;;;;;65.60;26.20;;;;;;;1.92;100.00;100264.13;18517518;28;20047;-71
2021/01/07 10:17:18;;;;;;;58.97;25.52;;;;;;;2.00;100.00;100257.91;18513860;28;20055;-72
2021/01/07 10:26:20;;;;;;;57.77;24.50;;;;;;;2.22;100.00;100255.72;18514378;28;20384;-72
2021/01/07 10:35:22;;;;;;;49.80;21.92;;;;;;;2.10;100.00;100245.63;18553385;28;20448;-72
2021/01/07 10:44:23;;;;;;;53.85;22.17;;;;;;;2.15;100.00;100239.50;18552176;28;20039;-71
2021/01/07 10:53:54;;;;;;;56.30;22.80;;;;;;;2.50;100.00;100238.66;18518014;28;20195;-72
2021/01/07 11:03:07;;;;;;;51.00;23.30;;;;;;;2.58;99.73;100234.19;18524095;28;20082;-71
2021/01/07 11:12:18;;;;;;;49.40;22.00;;;;;;;2.45;100.00;100237.06;18499934;28;20518;-71
2021/01/07 11:21:24;;;;;;;50.35;20.90;;;;;;;2.45;98.56;100222.44;18516245;28;20050;-71
2021/01/07 11:30:26;;;;;;;43.92;19.45;;;;;;;3.02;95.95;100211.53;18526700;28;20097;-71
2021/01/07 11:39:39;;;;;;;42.10;18.40;;;;;;;3.44;91.78;100197.41;18530400;28;20047;-71
2021/01/07 11:48:46;;;;;;;36.30;16.13;;;;;;;3.41;91.43;100181.97;18529022;28;20483;-71
2021/01/07 11:57:48;;;;;;;35.42;16.48;;;;;;;3.42;90.87;100173.31;18525886;28;20059;-71
2021/01/07 12:07:01;;;;;;;34.80;15.82;;;;;;;3.26;88.38;100164.28;18509834;28;20062;-72
2021/01/07 12:16:04;;;;;;;33.57;16.03;;;;;;;3.29;89.93;100161.63;18508388;28;20086;-72
2021/01/07 12:25:06;;;;;;;30.40;14.60;;;;;;;3.20;87.52;100159.28;18522346;28;20055;-71
2021/01/07 12:34:43;;;;;;;33.33;14.73;;;;;;;3.28;87.23;100153.91;18522546;28;20096;-71
2021/01/07 12:43:51;;;;;;;32.58;15.68;;;;;;;3.25;89.57;100154.84;18528087;28;20051;-72
2021/01/07 12:52:52;;;;;;;31.67;14.82;;;;;;;3.21;88.59;100153.22;18519908;28;20053;-72
2021/01/07 13:02:08;;;;;;;33.47;15.65;;;;;;;2.91;89.35;100138.56;18523866;28;20050;-72
2021/01/07 13:11:11;;;;;;;33.35;14.77;;;;;;;2.96;89.39;100131.53;18515174;28;20636;-72
2021/01/07 13:20:12;;;;;;;29.13;13.68;;;;;;;3.01;87.13;100135.69;18521932;28;20137;-73
2021/01/07 13:29:17;;;;;;;27.88;13.43;;;;;;;2.88;89.07;100134.34;18523639;28;20054;-72
2021/01/07 13:38:18;;;;;;;30.13;14.23;;;;;;;2.93;89.01;100136.81;18524408;28;20049;-72
2021/01/07 13:47:21;;;;;;;32.30;15.10;;;;;;;2.92;90.02;100132.53;18516596;28;20491;-72
2021/01/07 13:56:26;;;;;;;29.10;13.27;;;;;;;3.10;88.53;100133.75;18517423;28;20154;-72
2021/01/07 14:05:27;;;;;;;28.30;13.13;;;;;;;3.00;88.87;100122.81;18513512;28;20997;-72
2021/01/07 14:14:28;;;;;;;31.35;14.40;;;;;;;3.04;88.38;100121.84;18516725;28;20098;-72
2021/01/07 14:23:31;;;;;;;29.80;14.05;;;;;;;2.93;89.67;100126.47;18514233;28;20145;-72
2021/01/07 14:32:36;;;;;;;29.20;14.63;;;;;;;2.95;89.40;100124.66;18514252;28;20050;-72
2021/01/07 14:41:37;;;;;;;29.90;14.90;;;;;;;2.84;91.22;100125.00;18513920;28;20081;-72
2021/01/07 14:50:40;;;;;;;29.67;14.48;;;;;;;2.78;93.42;100129.47;18525388;28;20058;-73
2021/01/07 14:59:54;;;;;;;36.95;17.33;;;;;;;2.81;92.79;100139.72;18530481;28;20053;-73
2021/01/07 15:09:05;;;;;;;38.10;17.77;;;;;;;2.80;92.85;100140.59;18528771;28;20051;-73
2021/01/07 15:18:17;;;;;;;36.50;17.48;;;;;;;2.73;94.31;100146.84;18529135;28;20280;-72
2021/01/07 15:27:54;;;;;;;35.78;16.55;;;;;;;2.66;94.77;100145.28;18524756;28;20487;-72
2021/01/07 15:37:32;;;;;;;35.42;17.08;;;;;;;2.60;95.67;100151.44;18519075;28;20058;-72
2021/01/07 15:47:05;;;;;;;35.55;17.05;;;;;;;2.64;95.39;100147.06;18527059;28;20467;-72
2021/01/07 15:56:22;;;;;;;34.78;15.70;;;;;;;2.36;96.51;100150.34;18526323;28;20039;-73
2021/01/07 16:05:26;;;;;;;37.10;16.70;;;;;;;2.32;96.64;100143.56;18521468;28;20403;-73
2021/01/07 16:14:28;;;;;;;36.55;18.45;;;;;;;2.24;97.28;100142.91;18524963;28;20082;-72
2021/01/07 16:23:34;;;;;;;37.10;17.40;;;;;;;2.11;99.48;100144.94;18524708;28;20055;-73
2021/01/07 16:32:35;;;;;;;34.08;16.60;;;;;;;2.06;99.41;100141.63;18523705;28;20070;-73
2021/01/07 16:41:37;;;;;;;38.03;17.58;;;;;;;1.96;99.46;100134.13;18523720;28;20046;-72
2021/01/07 16:50:38;;;;;;;39.28;18.33;;;;;;;1.82;100.00;100147.34;18520739;28;20062;-74
2021/01/07 16:59:39;;;;;;;43.42;20.15;;;;;;;1.80;100.00;100148.25;18519956;28;20529;-72
2021/01/07 17:08:40;;;;;;;42.25;19.55;;;;;;;1.63;100.00;100161.53;18520169;28;20039;-72
2021/01/07 17:17:41;;;;;;;42.03;20.27;;;;;;;1.60;100.00;100154.72;18519774;28;20096;-72
2021/01/07 17:26:42;;;;;;;49.22;21.70;;;;;;;1.52;100.00;100148.91;18508659;28;20055;-72
2021/01/07 17:35:44;;;;;;;52.47;22.75;;;;;;;1.45;100.00;100162.78;18509644;28;20046;-72
2021/01/07 17:44:45;;;;;;;44.80;21.15;;;;;;;1.38;100.00;100166.34;18520250;28;20554;-71
2021/01/07 17:53:46;;;;;;;43.50;20.77;;;;;;;1.43;100.00;100163.69;18522523;28;20042;-72
2021/01/07 18:02:48;;;;;;;44.78;20.52;;;;;;;1.47;100.00;100162.75;18520816;28;20062;-72
2021/01/07 18:11:56;;;;;;;46.20;20.70;;;;;;;1.55;100.00;100164.28;18521198;28;20051;-72
2021/01/07 18:20:57;;;;;;;49.20;21.05;;;;;;;1.63;100.00;100162.38;18520023;28;20078;-72
2021/01/07 18:29:57;;;;;;;43.65;20.45;;;;;;;1.61;100.00;100166.75;18520194;28;20047;-72
2021/01/07 18:38:58;;;;;;;43.38;19.83;;;;;;;1.63;100.00;100177.84;18519185;28;20045;-72
2021/01/07 18:47:59;;;;;;;44.22;20.55;;;;;;;1.60;100.00;100175.34;18520609;28;20054;-71
2021/01/07 18:57:00;;;;;;;45.28;19.25;;;;;;;1.59;100.00;100176.22;18519780;28;20463;-72
2021/01/07 19:06:03;;;;;;;41.47;19.27;;;;;;;1.59;100.00;100181.38;18518320;28;20125;-71
2021/01/07 19:15:05;;;;;;;46.50;21.02;;;;;;;1.61;100.00;100178.78;18520336;28;20058;-71
2021/01/07 19:24:07;;;;;;;49.08;21.80;;;;;;;1.60;100.00;100195.13;18511122;28;20050;-72
2021/01/07 19:33:08;;;;;;;40.47;19.02;;;;;;;1.53;100.00;100191.81;18520191;28;20054;-71
2021/01/07 19:42:09;;;;;;;41.25;17.15;;;;;;;1.52;100.00;100185.00;18530424;28;20054;-72
2021/01/07 19:51:10;;;;;;;44.00;19.30;;;;;;;1.58;100.00;100190.00;18530925;28;20073;-72
2021/01/07 20:00:12;;;;;;;34.72;16.35;;;;;;;1.62;100.00;100196.81;18532791;28;20483;-71
2021/01/07 20:09:13;;;;;;;36.83;17.17;;;;;;;1.59;100.00;100199.44;18529832;28;20078;-72
2021/01/07 20:18:14;;;;;;;35.42;17.23;;;;;;;1.53;100.00;100201.28;18528562;28;20483;-71
2021/01/07 20:27:15;;;;;;;36.58;16.48;;;;;;;1.49;100.00;100207.41;18527366;28;20061;-72
2021/01/07 20:36:16;;;;;;;37.78;15.60;;;;;;;1.49;100.00;100209.97;18525806;28;20611;-72
2021/01/07 20:45:17;;;;;;;31.17;15.32;;;;;;;1.42;100.00;100209.28;18524840;28;20121;-71
2021/01/07 20:54:17;;;;;;;35.83;16.38;;;;;;;1.45;100.00;100214.34;18527043;28;20102;-72
2021/01/07 21:03:18;;;;;;;30.75;15.02;;;;;;;1.51;99.93;100218.53;18524043;28;20050;-72
2021/01/07 21:12:19;;;;;;;26.30;13.15;;;;;;;1.44;100.00;100204.91;18528015;28;20089;-72
2021/01/07 21:21:20;;;;;;;24.42;12.27;;;;;;;1.33;100.00;100206.84;18523346;28;20051;-72
2021/01/07 21:30:21;;;;;;;24.45;11.50;;;;;;;1.27;100.00;100214.69;18523878;28;20154;-72
2021/01/07 21:39:24;;;;;;;20.33;10.43;;;;;;;1.31;99.95;100211.22;18524009;28;20084;-72
2021/01/07 21:48:25;;;;;;;23.93;9.43;;;;;;;1.31;98.56;100206.06;18523488;28;20085;-72
2021/01/07 21:57:26;;;;;;;18.40;8.73;;;;;;;1.35;99.47;100210.25;18522014;28;20043;-71
2021/01/07 22:06:30;;;;;;;21.15;10.38;;;;;;;1.31;99.30;100211.22;18522035;28;20483;-72
2021/01/07 22:15:31;;;;;;;20.52;10.30;;;;;;;1.26;99.77;100206.16;18513687;28;20463;-71
2021/01/07 22:24:33;;;;;;;21.23;9.40;;;;;;;1.14;100.00;100197.78;18541568;28;20058;-72
2021/01/07 22:33:34;;;;;;;23.02;10.63;;;;;;;1.03;99.70;100205.72;18521089;28;20059;-72
2021/01/07 22:42:37;;;;;;;21.60;10.60;;;;;;;1.00;99.76;100216.09;18520581;28;20506;-71
2021/01/07 22:51:38;;;;;;;21.93;10.43;;;;;;;0.93;100.00;100211.06;18521310;28;20047;-71
2021/01/07 23:00:39;;;;;;;21.15;10.18;;;;;;;1.10;98.78;100209.03;18520710;28;20156;-70
2021/01/07 23:09:41;;;;;;;20.75;9.48;;;;;;;1.03;100.00;100195.41;18525750;28;20066;-71
2021/01/07 23:18:47;;;;;;;19.33;9.80;;;;;;;0.79;99.67;100201.88;18535416;28;20078;-71
2021/01/07 23:27:48;;;;;;;22.50;10.60;;;;;;;0.62;100.00;100201.31;18534082;28;20166;-70
2021/01/07 23:36:49;;;;;;;21.33;10.10;;;;;;;0.38;100.00;100188.84;18534056;28;20047;-71
2021/01/07 23:45:50;;;;;;;27.90;11.90;;;;;;;0.32;100.00;100205.25;18534238;28;20042;-71
2021/01/07 23:54:51;;;;;;;26.10;11.15;;;;;;;0.46;100.00;100197.28;18528877;28;20063;-71
